sensor_id;sensor_type;location;lat;lon;timestamp;P1;durP1;ratioP1;P2;durP2;ratioP2
44126;SDS011;29786;50.798;7.302;2023-09-30T00:00:38;19.9;;;6.2;;
44126;SDS011;29786;50.798;7.302;2023-09-30T00:01:38;14.5;;;6.1;;
44126;SDS011;29786;50.798;7.302;2023-09-30T00:02:38;14.3;;;6.1;;
44126;SDS011;29786;50.798;7.302;2023-09-30T00:03:38;19.3;;;6.3;;
44126;SDS011;29786;50.798;7.302;2023-09-30T00:04:38;14.8;;;5.8;;
44126;SDS011;29786;50.798;7.302;2023-09-30T00:05:38;14.6;;;5.4;;
44126;SDS011;29786;50.798;7.302;2023-09-30T00:06:38;14.2;;;5.3;;
44126;SDS011;29786;50.798;7.302;2023-09-30T00:07:38;15.8;;;5.6;;
44126;SDS011;29786;50.798;7.302;2023-09-30T00:08:38;15.9;;;6.3;;
44126;SDS011;29786;50.798;7.302;2023-09-30T00:09:38;18.8;;;5.7;;
44126;SDS011;29786;50.798;7.302;2023-09-30T00:10:38;16.8;;;6.3;;
44126;SDS011;29786;50.798;7.302;2023-09-30T00:11:38;14.5;;;5.6;;
44126;SDS011;29786;50.798;7.302;2023-09-30T00:12:38;15.4;;;5.3;;
44126;SDS011;29786;50.798;7.302;2023-09-30T00:13:38;14.4;;;5.2;;
44126;SDS011;29786;50.798;7.302;2023-09-30T00:14:38;16.1;;;5.9;;
44126;SDS011;29786;50.798;7.302;2023-09-30T00:15:38;17;;;6.1;;
44126;SDS011;29786;50.798;7.302;2023-09-30T00:16:38;22.9;;;6.1;;
44126;SDS011;29786;50.798;7.302;2023-09-30T00:17:38;16.2;;;5.5;;
44126;SDS011;29786;50.798;7.302;2023-09-30T00:18:38;14.5;;;5.5;;
44126;SDS011;29786;50.798;7.302;2023-09-30T00:19:38;16;;;5.7;;
44126;SDS011;29786;50.798;7.302;2023-09-30T00:20:38;14.3;;;5.4;;
44126;SDS011;29786;50.798;7.302;2023-09-30T00:21:38;19;;;6.1;;
44126;SDS011;29786;50.798;7.302;2023-09-30T00:22:38;14;;;5.4;;
44126;SDS011;29786;50.798;7.302;2023-09-30T00:23:38;18.7;;;6;;
44126;SDS011;29786;50.798;7.302;2023-09-30T00:24:38;21.6;;;5.7;;
44126;SDS011;29786;50.798;7.302;2023-09-30T00:25:38;15.9;;;6;;
44126;SDS011;29786;50.798;7.302;2023-09-30T00:26:38;16.4;;;5.7;;
44126;SDS011;29786;50.798;7.302;2023-09-30T00:27:38;17.3;;;5.5;;
44126;SDS011;29786;50.798;7.302;2023-09-30T00:28:38;17;;;6.6;;
44126;SDS011;29786;50.798;7.302;2023-09-30T00:29:38;19.2;;;6.3;;
44126;SDS011;29786;50.798;7.302;2023-09-30T00:30:38;16.3;;;5.6;;
44126;SDS011;29786;50.798;7.302;2023-09-30T00:31:38;17.5;;;6;;
44126;SDS011;29786;50.798;7.302;2023-09-30T00:32:38;18.9;;;5.4;;
44126;SDS011;29786;50.798;7.302;2023-09-30T00:33:38;16;;;5.7;;
44126;SDS011;29786;50.798;7.302;2023-09-30T00:34:38;23.9;;;6.5;;
44126;SDS011;29786;50.798;7.302;2023-09-30T00:35:38;21.9;;;5.9;;
44126;SDS011;29786;50.798;7.302;2023-09-30T00:36:38;18;;;7.1;;
44126;SDS011;29786;50.798;7.302;2023-09-30T00:37:38;15.9;;;6.1;;
44126;SDS011;29786;50.798;7.302;2023-09-30T00:38:38;18;;;6.1;;
44126;SDS011;29786;50.798;7.302;2023-09-30T00:39:38;15.8;;;5.8;;
44126;SDS011;29786;50.798;7.302;2023-09-30T00:40:38;16.2;;;6.1;;
44126;SDS011;29786;50.798;7.302;2023-09-30T00:41:38;15.9;;;5.7;;
44126;SDS011;29786;50.798;7.302;2023-09-30T00:42:38;12.9;;;5.4;;
44126;SDS011;29786;50.798;7.302;2023-09-30T00:43:38;11.9;;;4.6;;
44126;SDS011;29786;50.798;7.302;2023-09-30T00:44:38;9.9;;;4;;
44126;SDS011;29786;50.798;7.302;2023-09-30T00:45:38;9.3;;;4;;
44126;SDS011;29786;50.798;7.302;2023-09-30T00:46:39;8.9;;;3.5;;
44126;SDS011;29786;50.798;7.302;2023-09-30T00:47:38;7.8;;;3.2;;
44126;SDS011;29786;50.798;7.302;2023-09-30T00:48:38;11;;;4.2;;
44126;SDS011;29786;50.798;7.302;2023-09-30T00:49:38;11.8;;;4.5;;
44126;SDS011;29786;50.798;7.302;2023-09-30T00:50:38;10;;;4.3;;
44126;SDS011;29786;50.798;7.302;2023-09-30T00:51:38;14.3;;;4.5;;
44126;SDS011;29786;50.798;7.302;2023-09-30T00:52:38;14;;;5.2;;
44126;SDS011;29786;50.798;7.302;2023-09-30T00:53:38;16.5;;;5.8;;
44126;SDS011;29786;50.798;7.302;2023-09-30T00:54:38;15.9;;;5.4;;
44126;SDS011;29786;50.798;7.302;2023-09-30T00:55:38;14;;;5.4;;
44126;SDS011;29786;50.798;7.302;2023-09-30T00:56:40;24.7;;;6.4;;
44126;SDS011;29786;50.798;7.302;2023-09-30T00:57:38;17.8;;;6.2;;
44126;SDS011;29786;50.798;7.302;2023-09-30T00:58:38;20.9;;;6.8;;
44126;SDS011;29786;50.798;7.302;2023-09-30T00:59:38;18.6;;;6.7;;
44126;SDS011;29786;50.798;7.302;2023-09-30T01:00:38;16.6;;;6.8;;
44126;SDS011;29786;50.798;7.302;2023-09-30T01:01:38;19.6;;;6.9;;
44126;SDS011;29786;50.798;7.302;2023-09-30T01:02:39;25.3;;;7.6;;
44126;SDS011;29786;50.798;7.302;2023-09-30T01:03:38;21.1;;;7.4;;
44126;SDS011;29786;50.798;7.302;2023-09-30T01:04:38;21.6;;;7.7;;
44126;SDS011;29786;50.798;7.302;2023-09-30T01:05:38;21.7;;;7.7;;
44126;SDS011;29786;50.798;7.302;2023-09-30T01:06:38;24.7;;;7.7;;
44126;SDS011;29786;50.798;7.302;2023-09-30T01:07:38;24.6;;;7.6;;
44126;SDS011;29786;50.798;7.302;2023-09-30T01:08:38;24.5;;;7.4;;
44126;SDS011;29786;50.798;7.302;2023-09-30T01:09:38;25.8;;;8.4;;
44126;SDS011;29786;50.798;7.302;2023-09-30T01:10:38;21.1;;;7.2;;
44126;SDS011;29786;50.798;7.302;2023-09-30T01:11:39;21.7;;;7;;
44126;SDS011;29786;50.798;7.302;2023-09-30T01:12:38;19.6;;;7.3;;
44126;SDS011;29786;50.798;7.302;2023-09-30T01:13:38;21.6;;;6.6;;
44126;SDS011;29786;50.798;7.302;2023-09-30T01:14:38;16.9;;;7.1;;
44126;SDS011;29786;50.798;7.302;2023-09-30T01:15:38;16.8;;;6.6;;
44126;SDS011;29786;50.798;7.302;2023-09-30T01:16:38;21.6;;;7.2;;
44126;SDS011;29786;50.798;7.302;2023-09-30T01:17:38;18.4;;;6.8;;
44126;SDS011;29786;50.798;7.302;2023-09-30T01:18:39;22.2;;;7.1;;
44126;SDS011;29786;50.798;7.302;2023-09-30T01:19:38;21.9;;;7.6;;
44126;SDS011;29786;50.798;7.302;2023-09-30T01:20:38;19.3;;;8;;
44126;SDS011;29786;50.798;7.302;2023-09-30T01:21:38;21.1;;;7.5;;
44126;SDS011;29786;50.798;7.302;2023-09-30T01:22:38;22.9;;;9.9;;
44126;SDS011;29786;50.798;7.302;2023-09-30T01:23:38;23;;;9.1;;
44126;SDS011;29786;50.798;7.302;2023-09-30T01:24:39;24.3;;;8.9;;
44126;SDS011;29786;50.798;7.302;2023-09-30T01:25:38;35.6;;;12;;
44126;SDS011;29786;50.798;7.302;2023-09-30T01:26:38;36.4;;;12.1;;
44126;SDS011;29786;50.798;7.302;2023-09-30T01:27:38;37.3;;;13.1;;
44126;SDS011;29786;50.798;7.302;2023-09-30T01:28:38;28.5;;;13.2;;
44126;SDS011;29786;50.798;7.302;2023-09-30T01:29:38;51.3;;;14;;
44126;SDS011;29786;50.798;7.302;2023-09-30T01:30:38;52.4;;;15;;
44126;SDS011;29786;50.798;7.302;2023-09-30T01:31:38;45;;;14.4;;
44126;SDS011;29786;50.798;7.302;2023-09-30T01:32:38;61.5;;;15.2;;
44126;SDS011;29786;50.798;7.302;2023-09-30T01:33:38;59.8;;;15.5;;
44126;SDS011;29786;50.798;7.302;2023-09-30T01:34:38;38.4;;;15.2;;
44126;SDS011;29786;50.798;7.302;2023-09-30T01:35:38;51.4;;;15.4;;
44126;SDS011;29786;50.798;7.302;2023-09-30T01:36:38;62.6;;;15.5;;
44126;SDS011;29786;50.798;7.302;2023-09-30T01:37:38;51.8;;;14.7;;
44126;SDS011;29786;50.798;7.302;2023-09-30T01:38:38;32.9;;;12.8;;
44126;SDS011;29786;50.798;7.302;2023-09-30T01:39:38;34;;;15.7;;
44126;SDS011;29786;50.798;7.302;2023-09-30T01:40:38;38.1;;;16.5;;
44126;SDS011;29786;50.798;7.302;2023-09-30T01:41:38;36.3;;;16.8;;
44126;SDS011;29786;50.798;7.302;2023-09-30T01:42:38;33.3;;;16.2;;
44126;SDS011;29786;50.798;7.302;2023-09-30T01:43:38;36.1;;;16.9;;
44126;SDS011;29786;50.798;7.302;2023-09-30T01:44:38;34;;;16.8;;
44126;SDS011;29786;50.798;7.302;2023-09-30T01:45:38;34.3;;;16.8;;
44126;SDS011;29786;50.798;7.302;2023-09-30T01:46:38;36.1;;;16.5;;
44126;SDS011;29786;50.798;7.302;2023-09-30T01:47:38;36.7;;;17.6;;
44126;SDS011;29786;50.798;7.302;2023-09-30T01:48:38;35.3;;;17.2;;
44126;SDS011;29786;50.798;7.302;2023-09-30T01:49:38;30.1;;;15.8;;
44126;SDS011;29786;50.798;7.302;2023-09-30T01:50:38;34.1;;;15;;
44126;SDS011;29786;50.798;7.302;2023-09-30T01:51:38;25.6;;;15.3;;
44126;SDS011;29786;50.798;7.302;2023-09-30T01:52:38;29.8;;;14.8;;
44126;SDS011;29786;50.798;7.302;2023-09-30T01:53:38;31.4;;;14.6;;
44126;SDS011;29786;50.798;7.302;2023-09-30T01:54:38;27.5;;;14.1;;
44126;SDS011;29786;50.798;7.302;2023-09-30T01:55:38;30.6;;;14.8;;
44126;SDS011;29786;50.798;7.302;2023-09-30T01:56:38;33.2;;;14.2;;
44126;SDS011;29786;50.798;7.302;2023-09-30T01:57:38;26.1;;;12.9;;
44126;SDS011;29786;50.798;7.302;2023-09-30T01:58:38;31.7;;;13.9;;
44126;SDS011;29786;50.798;7.302;2023-09-30T01:59:38;27.8;;;14;;
44126;SDS011;29786;50.798;7.302;2023-09-30T02:00:38;28.9;;;13.5;;
44126;SDS011;29786;50.798;7.302;2023-09-30T02:01:38;24.4;;;13.5;;
44126;SDS011;29786;50.798;7.302;2023-09-30T02:02:38;26.2;;;14;;
44126;SDS011;29786;50.798;7.302;2023-09-30T02:03:38;23.5;;;13.1;;
44126;SDS011;29786;50.798;7.302;2023-09-30T02:04:38;25.7;;;12.9;;
44126;SDS011;29786;50.798;7.302;2023-09-30T02:05:38;23.9;;;12.5;;
44126;SDS011;29786;50.798;7.302;2023-09-30T02:06:38;26.2;;;10.2;;
44126;SDS011;29786;50.798;7.302;2023-09-30T02:07:38;19.3;;;11.9;;
44126;SDS011;29786;50.798;7.302;2023-09-30T02:08:38;27.3;;;12.2;;
44126;SDS011;29786;50.798;7.302;2023-09-30T02:09:38;19.9;;;10.2;;
44126;SDS011;29786;50.798;7.302;2023-09-30T02:10:38;16.2;;;8.7;;
44126;SDS011;29786;50.798;7.302;2023-09-30T02:11:38;19;;;9.8;;
44126;SDS011;29786;50.798;7.302;2023-09-30T02:12:38;18.1;;;10.6;;
44126;SDS011;29786;50.798;7.302;2023-09-30T02:13:38;23.1;;;11.8;;
44126;SDS011;29786;50.798;7.302;2023-09-30T02:14:38;20.3;;;10;;
44126;SDS011;29786;50.798;7.302;2023-09-30T02:15:39;20.2;;;9.9;;
44126;SDS011;29786;50.798;7.302;2023-09-30T02:16:38;17.9;;;10.2;;
44126;SDS011;29786;50.798;7.302;2023-09-30T02:17:38;24.8;;;12.7;;
44126;SDS011;29786;50.798;7.302;2023-09-30T02:18:38;18.3;;;10.8;;
44126;SDS011;29786;50.798;7.302;2023-09-30T02:19:38;17.5;;;10.3;;
44126;SDS011;29786;50.798;7.302;2023-09-30T02:20:39;21.8;;;11.4;;
44126;SDS011;29786;50.798;7.302;2023-09-30T02:21:38;19.3;;;11;;
44126;SDS011;29786;50.798;7.302;2023-09-30T02:22:38;23.2;;;12;;
44126;SDS011;29786;50.798;7.302;2023-09-30T02:23:38;24.7;;;11;;
44126;SDS011;29786;50.798;7.302;2023-09-30T02:24:38;18.2;;;9.9;;
44126;SDS011;29786;50.798;7.302;2023-09-30T02:25:38;16.4;;;10;;
44126;SDS011;29786;50.798;7.302;2023-09-30T02:26:38;21.3;;;10.6;;
44126;SDS011;29786;50.798;7.302;2023-09-30T02:27:40;20.2;;;10.7;;
44126;SDS011;29786;50.798;7.302;2023-09-30T02:28:38;17.5;;;8.9;;
44126;SDS011;29786;50.798;7.302;2023-09-30T02:29:38;20.8;;;10.8;;
44126;SDS011;29786;50.798;7.302;2023-09-30T02:30:38;20.5;;;10.3;;
44126;SDS011;29786;50.798;7.302;2023-09-30T02:31:38;16.4;;;8.5;;
44126;SDS011;29786;50.798;7.302;2023-09-30T02:32:38;18;;;9;;
44126;SDS011;29786;50.798;7.302;2023-09-30T02:33:38;19.6;;;8.9;;
44126;SDS011;29786;50.798;7.302;2023-09-30T02:34:38;18;;;10;;
44126;SDS011;29786;50.798;7.302;2023-09-30T02:35:38;18;;;10.6;;
44126;SDS011;29786;50.798;7.302;2023-09-30T02:36:38;20.5;;;10.5;;
44126;SDS011;29786;50.798;7.302;2023-09-30T02:37:38;14.7;;;9.9;;
44126;SDS011;29786;50.798;7.302;2023-09-30T02:38:38;13.8;;;9.7;;
44126;SDS011;29786;50.798;7.302;2023-09-30T02:39:38;17.4;;;10.5;;
44126;SDS011;29786;50.798;7.302;2023-09-30T02:40:38;16.4;;;9.2;;
44126;SDS011;29786;50.798;7.302;2023-09-30T02:41:38;13.8;;;9.1;;
44126;SDS011;29786;50.798;7.302;2023-09-30T02:42:38;16.4;;;8.6;;
44126;SDS011;29786;50.798;7.302;2023-09-30T02:43:38;15.6;;;10.2;;
44126;SDS011;29786;50.798;7.302;2023-09-30T02:44:38;12;;;8.5;;
44126;SDS011;29786;50.798;7.302;2023-09-30T02:45:38;13.7;;;8.5;;
44126;SDS011;29786;50.798;7.302;2023-09-30T02:46:38;11.4;;;7.3;;
44126;SDS011;29786;50.798;7.302;2023-09-30T02:47:38;13.7;;;8.6;;
44126;SDS011;29786;50.798;7.302;2023-09-30T02:48:38;15.4;;;9.1;;
44126;SDS011;29786;50.798;7.302;2023-09-30T02:49:38;12.7;;;8.5;;
44126;SDS011;29786;50.798;7.302;2023-09-30T02:50:38;13.4;;;8.9;;
44126;SDS011;29786;50.798;7.302;2023-09-30T02:51:38;14.7;;;8.1;;
44126;SDS011;29786;50.798;7.302;2023-09-30T02:52:38;14.6;;;8.9;;
44126;SDS011;29786;50.798;7.302;2023-09-30T02:53:38;14.5;;;8.2;;
44126;SDS011;29786;50.798;7.302;2023-09-30T02:54:38;13.7;;;9.2;;
44126;SDS011;29786;50.798;7.302;2023-09-30T02:55:38;12.6;;;8.2;;
44126;SDS011;29786;50.798;7.302;2023-09-30T02:56:38;14.4;;;7.7;;
44126;SDS011;29786;50.798;7.302;2023-09-30T02:57:38;12.4;;;7.2;;
44126;SDS011;29786;50.798;7.302;2023-09-30T02:59:38;15.5;;;9.5;;
44126;SDS011;29786;50.798;7.302;2023-09-30T03:00:38;12.6;;;8.1;;
44126;SDS011;29786;50.798;7.302;2023-09-30T03:01:38;13.1;;;8.7;;
44126;SDS011;29786;50.798;7.302;2023-09-30T03:02:38;17.3;;;9.4;;
44126;SDS011;29786;50.798;7.302;2023-09-30T03:03:38;14.4;;;9.1;;
44126;SDS011;29786;50.798;7.302;2023-09-30T03:04:38;14.2;;;8.4;;
44126;SDS011;29786;50.798;7.302;2023-09-30T03:05:38;16;;;8.2;;
44126;SDS011;29786;50.798;7.302;2023-09-30T03:06:38;21.4;;;8.3;;
44126;SDS011;29786;50.798;7.302;2023-09-30T03:07:38;29.8;;;7.6;;
44126;SDS011;29786;50.798;7.302;2023-09-30T03:08:38;40.8;;;8.2;;
44126;SDS011;29786;50.798;7.302;2023-09-30T03:09:38;55.6;;;8.5;;
44126;SDS011;29786;50.798;7.302;2023-09-30T03:10:38;31.8;;;8.4;;
44126;SDS011;29786;50.798;7.302;2023-09-30T03:11:38;15.6;;;7;;
44126;SDS011;29786;50.798;7.302;2023-09-30T03:12:38;31.6;;;7.2;;
44126;SDS011;29786;50.798;7.302;2023-09-30T03:13:38;24;;;8;;
44126;SDS011;29786;50.798;7.302;2023-09-30T03:14:38;39.9;;;8.3;;
44126;SDS011;29786;50.798;7.302;2023-09-30T03:15:38;33.9;;;9.2;;
44126;SDS011;29786;50.798;7.302;2023-09-30T03:16:39;22.7;;;9.4;;
44126;SDS011;29786;50.798;7.302;2023-09-30T03:17:38;29.3;;;9.9;;
44126;SDS011;29786;50.798;7.302;2023-09-30T03:18:38;24.9;;;10.1;;
44126;SDS011;29786;50.798;7.302;2023-09-30T03:19:38;18.5;;;9.9;;
44126;SDS011;29786;50.798;7.302;2023-09-30T03:20:39;17.3;;;10.7;;
44126;SDS011;29786;50.798;7.302;2023-09-30T03:21:38;21.6;;;8.6;;
44126;SDS011;29786;50.798;7.302;2023-09-30T03:22:38;21.4;;;10.3;;
44126;SDS011;29786;50.798;7.302;2023-09-30T03:23:38;17.7;;;10.1;;
44126;SDS011;29786;50.798;7.302;2023-09-30T03:24:38;17.8;;;9.5;;
44126;SDS011;29786;50.798;7.302;2023-09-30T03:25:38;14.8;;;8.9;;
44126;SDS011;29786;50.798;7.302;2023-09-30T03:26:38;19;;;10.3;;
44126;SDS011;29786;50.798;7.302;2023-09-30T03:27:38;16.4;;;9.6;;
44126;SDS011;29786;50.798;7.302;2023-09-30T03:28:38;13.8;;;9.3;;
44126;SDS011;29786;50.798;7.302;2023-09-30T03:29:38;12;;;8.8;;
44126;SDS011;29786;50.798;7.302;2023-09-30T03:30:38;13.2;;;8.5;;
44126;SDS011;29786;50.798;7.302;2023-09-30T03:31:38;13;;;8.7;;
44126;SDS011;29786;50.798;7.302;2023-09-30T03:32:38;16.3;;;9.7;;
44126;SDS011;29786;50.798;7.302;2023-09-30T03:33:38;16.2;;;10;;
44126;SDS011;29786;50.798;7.302;2023-09-30T03:34:38;13.6;;;10.4;;
44126;SDS011;29786;50.798;7.302;2023-09-30T03:35:38;12.4;;;8.6;;
44126;SDS011;29786;50.798;7.302;2023-09-30T03:36:38;12.1;;;8.1;;
44126;SDS011;29786;50.798;7.302;2023-09-30T03:37:38;12.8;;;8.4;;
44126;SDS011;29786;50.798;7.302;2023-09-30T03:38:38;15.6;;;9.6;;
44126;SDS011;29786;50.798;7.302;2023-09-30T03:39:38;15.4;;;8.9;;
44126;SDS011;29786;50.798;7.302;2023-09-30T03:40:39;14.2;;;9.9;;
44126;SDS011;29786;50.798;7.302;2023-09-30T03:41:38;18.4;;;11.1;;
44126;SDS011;29786;50.798;7.302;2023-09-30T03:42:38;21.7;;;11.8;;
44126;SDS011;29786;50.798;7.302;2023-09-30T03:43:39;17.3;;;9.1;;
44126;SDS011;29786;50.798;7.302;2023-09-30T03:44:38;28.5;;;11.3;;
44126;SDS011;29786;50.798;7.302;2023-09-30T03:45:38;22.6;;;12.5;;
44126;SDS011;29786;50.798;7.302;2023-09-30T03:46:38;41.8;;;12.4;;
44126;SDS011;29786;50.798;7.302;2023-09-30T03:47:39;45.2;;;11.7;;
44126;SDS011;29786;50.798;7.302;2023-09-30T03:48:38;37;;;11.3;;
44126;SDS011;29786;50.798;7.302;2023-09-30T03:49:38;41.5;;;11.2;;
44126;SDS011;29786;50.798;7.302;2023-09-30T03:50:38;35.1;;;10.8;;
44126;SDS011;29786;50.798;7.302;2023-09-30T03:51:38;28.9;;;10.4;;
44126;SDS011;29786;50.798;7.302;2023-09-30T03:52:38;33.8;;;10.6;;
44126;SDS011;29786;50.798;7.302;2023-09-30T03:53:38;18.4;;;9.2;;
44126;SDS011;29786;50.798;7.302;2023-09-30T03:54:38;20.8;;;8.9;;
44126;SDS011;29786;50.798;7.302;2023-09-30T03:55:38;34.7;;;9.4;;
44126;SDS011;29786;50.798;7.302;2023-09-30T03:56:38;22.4;;;7.7;;
44126;SDS011;29786;50.798;7.302;2023-09-30T03:57:38;44.2;;;8;;
44126;SDS011;29786;50.798;7.302;2023-09-30T03:58:39;21;;;8.1;;
44126;SDS011;29786;50.798;7.302;2023-09-30T03:59:38;11.2;;;7.9;;
44126;SDS011;29786;50.798;7.302;2023-09-30T04:00:38;12.4;;;7.3;;
44126;SDS011;29786;50.798;7.302;2023-09-30T04:01:38;9.3;;;6.7;;
44126;SDS011;29786;50.798;7.302;2023-09-30T04:02:38;16.1;;;8.5;;
44126;SDS011;29786;50.798;7.302;2023-09-30T04:03:38;18.5;;;9.9;;
44126;SDS011;29786;50.798;7.302;2023-09-30T04:04:38;17.9;;;8.6;;
44126;SDS011;29786;50.798;7.302;2023-09-30T04:05:38;17.8;;;8.6;;
44126;SDS011;29786;50.798;7.302;2023-09-30T04:06:38;13.4;;;8.1;;
44126;SDS011;29786;50.798;7.302;2023-09-30T04:07:38;16.4;;;9.3;;
44126;SDS011;29786;50.798;7.302;2023-09-30T04:08:38;12.9;;;8.6;;
44126;SDS011;29786;50.798;7.302;2023-09-30T04:09:38;13.5;;;7.8;;
44126;SDS011;29786;50.798;7.302;2023-09-30T04:10:38;16.7;;;8.5;;
44126;SDS011;29786;50.798;7.302;2023-09-30T04:11:38;10.1;;;7.2;;
44126;SDS011;29786;50.798;7.302;2023-09-30T04:12:38;16.3;;;7.7;;
44126;SDS011;29786;50.798;7.302;2023-09-30T04:13:38;21.4;;;6.4;;
44126;SDS011;29786;50.798;7.302;2023-09-30T04:14:38;13.9;;;6.9;;
44126;SDS011;29786;50.798;7.302;2023-09-30T04:15:38;13.7;;;6.6;;
44126;SDS011;29786;50.798;7.302;2023-09-30T04:16:38;13;;;5.9;;
44126;SDS011;29786;50.798;7.302;2023-09-30T04:17:38;48.3;;;7.1;;
44126;SDS011;29786;50.798;7.302;2023-09-30T04:18:38;20.4;;;5.4;;
44126;SDS011;29786;50.798;7.302;2023-09-30T04:19:38;13.7;;;5.3;;
44126;SDS011;29786;50.798;7.302;2023-09-30T04:20:38;18;;;5.8;;
44126;SDS011;29786;50.798;7.302;2023-09-30T04:21:38;23.4;;;6.5;;
44126;SDS011;29786;50.798;7.302;2023-09-30T04:22:38;11.9;;;6.3;;
44126;SDS011;29786;50.798;7.302;2023-09-30T04:23:38;34.8;;;7.3;;
44126;SDS011;29786;50.798;7.302;2023-09-30T04:24:38;30.3;;;6.1;;
44126;SDS011;29786;50.798;7.302;2023-09-30T04:25:38;51.9;;;8.2;;
44126;SDS011;29786;50.798;7.302;2023-09-30T04:26:38;54;;;7.7;;
44126;SDS011;29786;50.798;7.302;2023-09-30T04:27:38;21.5;;;6.4;;
44126;SDS011;29786;50.798;7.302;2023-09-30T04:28:38;44.5;;;7.3;;
44126;SDS011;29786;50.798;7.302;2023-09-30T04:29:38;59.6;;;7.2;;
44126;SDS011;29786;50.798;7.302;2023-09-30T04:30:38;47;;;7.5;;
44126;SDS011;29786;50.798;7.302;2023-09-30T04:31:38;44.8;;;6.9;;
44126;SDS011;29786;50.798;7.302;2023-09-30T04:32:38;39.5;;;6.5;;
44126;SDS011;29786;50.798;7.302;2023-09-30T04:33:38;31.8;;;6.4;;
44126;SDS011;29786;50.798;7.302;2023-09-30T04:34:38;35.2;;;6.8;;
44126;SDS011;29786;50.798;7.302;2023-09-30T04:35:38;34.6;;;7;;
44126;SDS011;29786;50.798;7.302;2023-09-30T04:36:38;17.3;;;6.4;;
44126;SDS011;29786;50.798;7.302;2023-09-30T04:37:38;45;;;9.3;;
44126;SDS011;29786;50.798;7.302;2023-09-30T04:38:38;43;;;9.3;;
44126;SDS011;29786;50.798;7.302;2023-09-30T04:39:38;44.5;;;7.5;;
44126;SDS011;29786;50.798;7.302;2023-09-30T04:40:38;38.5;;;7.2;;
44126;SDS011;29786;50.798;7.302;2023-09-30T04:41:38;37.1;;;7.3;;
44126;SDS011;29786;50.798;7.302;2023-09-30T04:42:38;52.2;;;9.3;;
44126;SDS011;29786;50.798;7.302;2023-09-30T04:43:38;20.7;;;6.9;;
44126;SDS011;29786;50.798;7.302;2023-09-30T04:44:38;12.2;;;6.7;;
44126;SDS011;29786;50.798;7.302;2023-09-30T04:45:38;27.7;;;7;;
44126;SDS011;29786;50.798;7.302;2023-09-30T04:46:38;22.3;;;6.6;;
44126;SDS011;29786;50.798;7.302;2023-09-30T04:47:38;32.9;;;7.2;;
44126;SDS011;29786;50.798;7.302;2023-09-30T04:48:38;25.9;;;7.3;;
44126;SDS011;29786;50.798;7.302;2023-09-30T04:49:38;27.5;;;6.7;;
44126;SDS011;29786;50.798;7.302;2023-09-30T04:50:39;23.3;;;7.6;;
44126;SDS011;29786;50.798;7.302;2023-09-30T04:51:38;33.6;;;7.7;;
44126;SDS011;29786;50.798;7.302;2023-09-30T04:52:38;31.2;;;7.7;;
44126;SDS011;29786;50.798;7.302;2023-09-30T04:53:38;25.1;;;7.3;;
44126;SDS011;29786;50.798;7.302;2023-09-30T04:54:38;20;;;7.4;;
44126;SDS011;29786;50.798;7.302;2023-09-30T04:55:38;22.1;;;6.8;;
44126;SDS011;29786;50.798;7.302;2023-09-30T04:56:38;25.6;;;6.8;;
44126;SDS011;29786;50.798;7.302;2023-09-30T04:57:38;26.6;;;7.6;;
44126;SDS011;29786;50.798;7.302;2023-09-30T04:58:38;35.5;;;7.7;;
44126;SDS011;29786;50.798;7.302;2023-09-30T04:59:38;21.4;;;6.8;;
44126;SDS011;29786;50.798;7.302;2023-09-30T05:00:38;37.3;;;7.6;;
44126;SDS011;29786;50.798;7.302;2023-09-30T05:01:38;18.6;;;7.3;;
44126;SDS011;29786;50.798;7.302;2023-09-30T05:02:38;36.2;;;7.2;;
44126;SDS011;29786;50.798;7.302;2023-09-30T05:03:38;9.7;;;6.8;;
44126;SDS011;29786;50.798;7.302;2023-09-30T05:04:38;28.9;;;8;;
44126;SDS011;29786;50.798;7.302;2023-09-30T05:05:38;28.9;;;7.4;;
44126;SDS011;29786;50.798;7.302;2023-09-30T05:06:38;24;;;6.4;;
44126;SDS011;29786;50.798;7.302;2023-09-30T05:07:38;23.1;;;7.5;;
44126;SDS011;29786;50.798;7.302;2023-09-30T05:08:38;14;;;6.6;;
44126;SDS011;29786;50.798;7.302;2023-09-30T05:09:38;26.1;;;8;;
44126;SDS011;29786;50.798;7.302;2023-09-30T05:10:38;11.4;;;7.3;;
44126;SDS011;29786;50.798;7.302;2023-09-30T05:11:38;33.4;;;7;;
44126;SDS011;29786;50.798;7.302;2023-09-30T05:12:38;31.8;;;7.4;;
44126;SDS011;29786;50.798;7.302;2023-09-30T05:13:38;27.8;;;7.5;;
44126;SDS011;29786;50.798;7.302;2023-09-30T05:14:38;22.5;;;7.1;;
44126;SDS011;29786;50.798;7.302;2023-09-30T05:15:38;19.9;;;7.6;;
44126;SDS011;29786;50.798;7.302;2023-09-30T05:16:38;40.4;;;8.5;;
44126;SDS011;29786;50.798;7.302;2023-09-30T05:17:38;33.5;;;7.9;;
44126;SDS011;29786;50.798;7.302;2023-09-30T05:18:38;57.7;;;9.2;;
44126;SDS011;29786;50.798;7.302;2023-09-30T05:19:38;33.7;;;7.6;;
44126;SDS011;29786;50.798;7.302;2023-09-30T05:20:38;23.4;;;7;;
44126;SDS011;29786;50.798;7.302;2023-09-30T05:21:38;26.3;;;7.7;;
44126;SDS011;29786;50.798;7.302;2023-09-30T05:22:38;22.5;;;7.6;;
44126;SDS011;29786;50.798;7.302;2023-09-30T05:23:38;15;;;7.6;;
44126;SDS011;29786;50.798;7.302;2023-09-30T05:24:38;8.3;;;6;;
44126;SDS011;29786;50.798;7.302;2023-09-30T05:25:38;10.5;;;7.3;;
44126;SDS011;29786;50.798;7.302;2023-09-30T05:26:38;11.8;;;6.8;;
44126;SDS011;29786;50.798;7.302;2023-09-30T05:27:38;11;;;7.4;;
44126;SDS011;29786;50.798;7.302;2023-09-30T05:28:38;7.5;;;6.3;;
44126;SDS011;29786;50.798;7.302;2023-09-30T05:29:38;9.5;;;6.4;;
44126;SDS011;29786;50.798;7.302;2023-09-30T05:30:38;14.8;;;6.2;;
44126;SDS011;29786;50.798;7.302;2023-09-30T05:31:38;13.5;;;6.6;;
44126;SDS011;29786;50.798;7.302;2023-09-30T05:32:38;15.7;;;6;;
44126;SDS011;29786;50.798;7.302;2023-09-30T05:33:38;24.3;;;6.2;;
44126;SDS011;29786;50.798;7.302;2023-09-30T05:34:38;24.3;;;6.6;;
44126;SDS011;29786;50.798;7.302;2023-09-30T05:35:38;24.2;;;5.8;;
44126;SDS011;29786;50.798;7.302;2023-09-30T05:36:38;36.4;;;6.8;;
44126;SDS011;29786;50.798;7.302;2023-09-30T05:37:40;15.7;;;5.9;;
44126;SDS011;29786;50.798;7.302;2023-09-30T05:38:38;27.8;;;6.3;;
44126;SDS011;29786;50.798;7.302;2023-09-30T05:39:38;39.8;;;7.1;;
44126;SDS011;29786;50.798;7.302;2023-09-30T05:40:38;63.6;;;7.1;;
44126;SDS011;29786;50.798;7.302;2023-09-30T05:41:38;72.9;;;7.6;;
44126;SDS011;29786;50.798;7.302;2023-09-30T05:42:38;67;;;6.9;;
44126;SDS011;29786;50.798;7.302;2023-09-30T05:43:38;53.3;;;7.1;;
44126;SDS011;29786;50.798;7.302;2023-09-30T05:44:38;42.6;;;6;;
44126;SDS011;29786;50.798;7.302;2023-09-30T05:45:38;21;;;6;;
44126;SDS011;29786;50.798;7.302;2023-09-30T05:46:38;31.5;;;7;;
44126;SDS011;29786;50.798;7.302;2023-09-30T05:47:38;75;;;9;;
44126;SDS011;29786;50.798;7.302;2023-09-30T05:48:38;42.4;;;6.9;;
44126;SDS011;29786;50.798;7.302;2023-09-30T05:49:38;30.3;;;6.4;;
44126;SDS011;29786;50.798;7.302;2023-09-30T05:50:38;51;;;7.1;;
44126;SDS011;29786;50.798;7.302;2023-09-30T05:51:38;40.8;;;6.7;;
44126;SDS011;29786;50.798;7.302;2023-09-30T05:52:38;51.6;;;6.4;;
44126;SDS011;29786;50.798;7.302;2023-09-30T05:53:38;41.8;;;6.4;;
44126;SDS011;29786;50.798;7.302;2023-09-30T05:54:38;49.2;;;5.9;;
44126;SDS011;29786;50.798;7.302;2023-09-30T05:55:38;29.3;;;5.8;;
44126;SDS011;29786;50.798;7.302;2023-09-30T05:56:38;29.8;;;6;;
44126;SDS011;29786;50.798;7.302;2023-09-30T05:57:38;61.5;;;6.4;;
44126;SDS011;29786;50.798;7.302;2023-09-30T05:58:38;39.4;;;5.2;;
44126;SDS011;29786;50.798;7.302;2023-09-30T05:59:38;31.9;;;5.9;;
44126;SDS011;29786;50.798;7.302;2023-09-30T06:00:39;19.6;;;5.4;;
44126;SDS011;29786;50.798;7.302;2023-09-30T06:01:38;30.9;;;5.2;;
44126;SDS011;29786;50.798;7.302;2023-09-30T06:02:38;13.1;;;4.7;;
44126;SDS011;29786;50.798;7.302;2023-09-30T06:03:38;32.4;;;5.2;;
44126;SDS011;29786;50.798;7.302;2023-09-30T06:04:38;43.8;;;5.6;;
44126;SDS011;29786;50.798;7.302;2023-09-30T06:05:39;17.8;;;4.7;;
44126;SDS011;29786;50.798;7.302;2023-09-30T06:06:38;37.9;;;5.7;;
44126;SDS011;29786;50.798;7.302;2023-09-30T06:07:38;35.8;;;5.4;;
44126;SDS011;29786;50.798;7.302;2023-09-30T06:08:38;28.9;;;5.2;;
44126;SDS011;29786;50.798;7.302;2023-09-30T06:09:38;15.5;;;4.7;;